Time;durP1;ratioP1;P1;durP2;ratioP2;P2;SDS_P1;SDS_P2;PMS_P1;PMS_P2;Temp;Humidity;BMP_temperature;BMP_pressure;BME280_temperature;BME280_humidity;BME280_pressure;Samples;Min_cycle;Max_cycle;Signal;HPM_P1;HPM_P2
2021/08/14 00:00:01;;;;;;;16.23;11.40;;;19.40;99.90;;;;;;5071139;28;20385;-74
2021/08/14 00:02:27;;;;;;;13.45;11.93;;;19.40;99.90;;;;;;5071405;28;20455;-74
2021/08/14 00:04:53;;;;;;;15.57;12.52;;;19.40;99.90;;;;;;5070543;28;20064;-74
2021/08/14 00:07:18;;;;;;;17.92;13.50;;;19.40;99.90;;;;;;5060227;28;20067;-74
2021/08/14 00:09:44;;;;;;;19.67;13.15;;;19.50;99.90;;;;;;5033628;28;20017;-74
2021/08/14 00:12:10;;;;;;;17.20;13.52;;;19.40;99.90;;;;;;5051325;28;20505;-74
2021/08/14 00:14:36;;;;;;;15.65;12.07;;;19.40;99.90;;;;;;5050215;28;20037;-74
2021/08/14 00:17:02;;;;;;;18.02;13.10;;;19.20;99.90;;;;;;5051297;28;20160;-74
2021/08/14 00:19:29;;;;;;;18.48;13.60;;;19.20;99.90;;;;;;5051172;28;20064;-74
2021/08/14 00:21:56;;;;;;;17.83;13.95;;;19.20;99.90;;;;;;5051287;28;20108;-74
2021/08/14 00:24:21;;;;;;;15.73;13.93;;;19.20;99.90;;;;;;5050561;28;20076;-74
2021/08/14 00:26:47;;;;;;;19.75;13.70;;;19.20;99.90;;;;;;5051203;28;20052;-74
2021/08/14 00:29:13;;;;;;;18.88;12.93;;;19.20;99.90;;;;;;5051686;28;20386;-73
2021/08/14 00:31:38;;;;;;;15.90;13.55;;;19.20;99.90;;;;;;5059993;28;20396;-74
2021/08/14 00:34:04;;;;;;;16.33;13.95;;;19.20;99.90;;;;;;5060048;28;20156;-74
2021/08/14 00:36:30;;;;;;;17.63;14.07;;;19.10;99.90;;;;;;5055248;28;20383;-74
2021/08/14 00:38:57;;;;;;;17.42;12.82;;;19.00;99.90;;;;;;5070742;28;20039;-73
2021/08/14 00:41:23;;;;;;;16.90;13.55;;;19.00;99.90;;;;;;5071286;28;20031;-73
2021/08/14 00:43:49;;;;;;;22.52;15.43;;;19.00;99.90;;;;;;5070634;28;20471;-73
2021/08/14 00:46:15;;;;;;;21.90;15.13;;;19.00;99.90;;;;;;5070277;28;20031;-74
2021/08/14 00:48:41;;;;;;;20.35;16.65;;;18.90;99.90;;;;;;5070520;28;20024;-74
2021/08/14 00:51:09;;;;;;;18.33;15.48;;;18.90;99.90;;;;;;5071319;28;20028;-74
2021/08/14 00:53:36;;;;;;;20.67;15.13;;;18.80;99.90;;;;;;5070986;28;20093;-74
2021/08/14 00:56:02;;;;;;;19.35;15.95;;;18.80;99.90;;;;;;5070286;28;20017;-74
2021/08/14 00:58:28;;;;;;;21.70;16.00;;;18.80;99.90;;;;;;5070837;28;20534;-74
2021/08/14 01:00:56;;;;;;;25.05;16.65;;;18.80;99.90;;;;;;5070504;28;20056;-74
2021/08/14 01:03:23;;;;;;;19.88;15.43;;;18.80;99.90;;;;;;5070798;28;20021;-74
2021/08/14 01:05:49;;;;;;;19.58;15.63;;;18.80;99.90;;;;;;5070289;28;20030;-75
2021/08/14 01:08:15;;;;;;;17.55;15.10;;;18.80;99.90;;;;;;5070638;28;20104;-75
2021/08/14 01:10:43;;;;;;;19.58;15.18;;;18.70;99.90;;;;;;5071000;28;20048;-75
2021/08/14 01:13:09;;;;;;;19.63;14.60;;;18.70;99.90;;;;;;5070792;28;20053;-74
2021/08/14 01:15:35;;;;;;;17.70;14.80;;;18.70;99.90;;;;;;5069628;28;20067;-74
2021/08/14 01:18:01;;;;;;;19.27;13.68;;;18.60;99.90;;;;;;5070746;28;20485;-75
2021/08/14 01:20:27;;;;;;;17.83;14.20;;;18.70;99.90;;;;;;5070624;28;20029;-75
2021/08/14 01:22:53;;;;;;;18.45;14.25;;;18.70;99.90;;;;;;5070739;28;20428;-74
2021/08/14 01:25:20;;;;;;;25.88;16.05;;;18.70;99.90;;;;;;5071162;28;20024;-75
2021/08/14 01:27:46;;;;;;;17.95;15.85;;;18.60;99.90;;;;;;5074293;28;20112;-74
2021/08/14 01:30:13;;;;;;;19.17;15.95;;;18.60;99.90;;;;;;5073682;28;20112;-74
2021/08/14 01:32:40;;;;;;;23.15;15.75;;;18.50;99.90;;;;;;5074198;28;20096;-75
2021/08/14 01:35:07;;;;;;;17.75;15.70;;;18.50;99.90;;;;;;5073440;28;20472;-75
2021/08/14 01:37:33;;;;;;;19.52;15.57;;;18.40;99.90;;;;;;5074099;28;20074;-74
2021/08/14 01:40:00;;;;;;;21.48;16.38;;;18.30;99.90;;;;;;5074128;28;20056;-75
2021/08/14 01:42:26;;;;;;;19.80;15.93;;;18.30;99.90;;;;;;5073946;28;20066;-75
2021/08/14 01:44:52;;;;;;;24.23;15.82;;;18.20;99.90;;;;;;5072832;28;20596;-74
2021/08/14 01:47:19;;;;;;;21.23;16.38;;;18.20;99.90;;;;;;5073861;28;20107;-74
2021/08/14 01:49:44;;;;;;;19.23;16.58;;;18.10;99.90;;;;;;5073825;28;20025;-75
2021/08/14 01:52:12;;;;;;;22.23;15.85;;;18.10;99.90;;;;;;5073873;28;20028;-75
2021/08/14 01:54:38;;;;;;;19.83;17.73;;;18.10;99.90;;;;;;5072996;28;20027;-75
2021/08/14 01:57:05;;;;;;;21.77;17.80;;;18.10;99.90;;;;;;5073702;28;20025;-74
2021/08/14 01:59:32;;;;;;;24.50;15.88;;;18.20;99.90;;;;;;5073391;28;20154;-74
2021/08/14 02:01:58;;;;;;;24.13;17.17;;;18.20;99.90;;;;;;5055615;28;20460;-74
2021/08/14 02:04:24;;;;;;;22.58;16.38;;;18.20;99.90;;;;;;5072910;28;20067;-75
2021/08/14 02:06:49;;;;;;;21.73;16.98;;;18.20;99.90;;;;;;5073299;28;20032;-75
2021/08/14 02:09:15;;;;;;;18.83;15.63;;;18.20;99.90;;;;;;5073274;28;20016;-74
2021/08/14 02:11:41;;;;;;;20.70;16.30;;;18.20;99.90;;;;;;5055509;28;20024;-75
2021/08/14 02:14:07;;;;;;;19.85;16.98;;;18.20;99.90;;;;;;5072997;28;20036;-75
2021/08/14 02:16:33;;;;;;;21.13;17.27;;;18.10;99.90;;;;;;5072755;28;20037;-74
2021/08/14 02:18:59;;;;;;;21.10;16.42;;;18.00;99.90;;;;;;5073306;28;20028;-75
2021/08/14 02:21:25;;;;;;;20.00;17.88;;;18.00;99.90;;;;;;5073372;28;20459;-75
2021/08/14 02:23:51;;;;;;;19.08;16.52;;;18.00;99.90;;;;;;5073267;28;20043;-74
2021/08/14 02:26:17;;;;;;;20.02;17.83;;;17.90;99.90;;;;;;5072436;28;20522;-74
2021/08/14 02:28:42;;;;;;;24.63;16.67;;;17.90;99.90;;;;;;5073058;28;20428;-74
2021/08/14 02:31:08;;;;;;;19.80;16.95;;;17.90;99.90;;;;;;5072843;28;20016;-74
2021/08/14 02:33:34;;;;;;;23.80;17.67;;;17.90;99.90;;;;;;5072977;28;20410;-74
2021/08/14 02:36:00;;;;;;;22.08;16.75;;;17.90;99.90;;;;;;5071986;28;20024;-74
2021/08/14 02:38:26;;;;;;;20.98;16.35;;;17.80;99.90;;;;;;5072133;28;20028;-74
2021/08/14 02:40:52;;;;;;;22.90;17.40;;;17.80;99.90;;;;;;5072678;28;20028;-75
2021/08/14 02:43:18;;;;;;;22.83;16.17;;;17.80;99.90;;;;;;5072827;28;20111;-74
2021/08/14 02:45:44;;;;;;;19.83;16.45;;;17.80;99.90;;;;;;5071794;28;20029;-74
2021/08/14 02:48:11;;;;;;;29.77;17.60;;;17.80;99.90;;;;;;5072828;28;20021;-75
2021/08/14 02:50:39;;;;;;;19.50;16.55;;;17.80;99.90;;;;;;5072958;28;20437;-74
2021/08/14 02:53:04;;;;;;;20.40;16.52;;;17.80;99.90;;;;;;5072738;28;20024;-75
2021/08/14 02:55:30;;;;;;;23.13;16.48;;;17.70;99.90;;;;;;5071732;28;20032;-74
2021/08/14 02:57:56;;;;;;;19.17;14.93;;;17.70;99.90;;;;;;5054646;28;20031;-74
2021/08/14 03:00:21;;;;;;;22.25;16.25;;;17.70;99.90;;;;;;5072282;28;20024;-74
2021/08/14 03:02:47;;;;;;;19.55;16.00;;;17.70;99.90;;;;;;5072278;28;20562;-74
2021/08/14 03:05:13;;;;;;;25.02;17.52;;;17.70;99.90;;;;;;5071574;28;20032;-74
2021/08/14 03:07:39;;;;;;;25.13;17.95;;;17.70;99.90;;;;;;5072222;28;20390;-75
2021/08/14 03:10:06;;;;;;;22.65;15.93;;;17.70;99.90;;;;;;5072147;28;20102;-75
2021/08/14 03:12:31;;;;;;;24.85;17.55;;;17.60;99.90;;;;;;5054194;28;20116;-75
2021/08/14 03:14:57;;;;;;;22.05;18.35;;;17.60;99.90;;;;;;5071120;28;20073;-75
2021/08/14 03:17:23;;;;;;;21.63;16.73;;;17.60;99.90;;;;;;5072136;28;20029;-75
2021/08/14 03:19:48;;;;;;;22.27;18.10;;;17.60;99.90;;;;;;5072138;28;20372;-75
2021/08/14 03:22:14;;;;;;;28.70;17.85;;;17.60;99.90;;;;;;5072138;28;20442;-74
2021/08/14 03:24:40;;;;;;;23.73;18.77;;;17.60;99.90;;;;;;5071070;28;20016;-75
2021/08/14 03:27:06;;;;;;;20.52;17.80;;;17.60;99.90;;;;;;5054056;28;20433;-74
2021/08/14 03:29:32;;;;;;;25.35;19.08;;;17.60;99.90;;;;;;5071472;28;20051;-74
2021/08/14 03:31:58;;;;;;;25.33;18.77;;;17.60;99.90;;;;;;5071960;28;20492;-74
2021/08/14 03:34:24;;;;;;;21.40;19.10;;;17.50;99.90;;;;;;5071287;28;20091;-75
2021/08/14 03:36:49;;;;;;;22.00;17.58;;;17.50;99.90;;;;;;5071447;28;20029;-74
2021/08/14 03:39:15;;;;;;;20.65;18.27;;;17.50;99.90;;;;;;5053709;28;20535;-74
2021/08/14 03:41:41;;;;;;;24.13;18.08;;;17.40;99.90;;;;;;5071978;28;20020;-75
2021/08/14 03:44:06;;;;;;;25.33;18.10;;;17.50;99.90;;;;;;5072029;28;20410;-74
2021/08/14 03:46:32;;;;;;;27.23;18.25;;;17.40;99.90;;;;;;5070891;28;20024;-74
2021/08/14 03:48:58;;;;;;;21.08;18.02;;;17.40;99.90;;;;;;5071347;28;20063;-74
2021/08/14 03:51:24;;;;;;;24.45;18.92;;;17.40;99.90;;;;;;5053682;28;20489;-74
2021/08/14 03:53:49;;;;;;;25.67;17.95;;;17.30;99.90;;;;;;5071324;28;20020;-75
2021/08/14 03:56:15;;;;;;;24.05;18.55;;;17.40;99.90;;;;;;5070845;28;20584;-74
2021/08/14 03:58:41;;;;;;;24.08;18.70;;;17.40;99.90;;;;;;5070404;28;20028;-74
2021/08/14 04:01:07;;;;;;;20.77;16.73;;;17.30;99.90;;;;;;5071304;28;20047;-74
2021/08/14 04:03:33;;;;;;;18.58;15.02;;;17.10;99.90;;;;;;5071386;28;20032;-74
2021/08/14 04:05:59;;;;;;;19.92;17.42;;;17.10;99.90;;;;;;5070844;28;20024;-74
2021/08/14 04:08:25;;;;;;;25.98;17.08;;;17.20;99.90;;;;;;5071222;28;20028;-75
2021/08/14 04:10:51;;;;;;;20.48;16.98;;;17.30;99.90;;;;;;5071530;28;20024;-74
2021/08/14 04:13:17;;;;;;;18.58;16.45;;;17.20;99.90;;;;;;5071091;28;20036;-74
2021/08/14 04:15:43;;;;;;;22.42;17.58;;;17.20;99.90;;;;;;5070274;28;20036;-74
2021/08/14 04:18:09;;;;;;;19.60;16.92;;;17.10;99.90;;;;;;5071361;28;20036;-74
2021/08/14 04:20:35;;;;;;;18.77;14.55;;;17.20;99.90;;;;;;5071372;28;20104;-74
2021/08/14 04:23:01;;;;;;;23.17;17.15;;;17.20;99.90;;;;;;5051217;28;20028;-74
2021/08/14 04:25:27;;;;;;;22.95;17.60;;;17.20;99.90;;;;;;5068550;28;20025;-74
2021/08/14 04:27:52;;;;;;;21.48;18.25;;;17.20;99.90;;;;;;5069897;28;20107;-74
2021/08/14 04:30:18;;;;;;;22.73;18.65;;;17.20;99.90;;;;;;5069834;28;20052;-74
2021/08/14 04:32:45;;;;;;;25.65;20.10;;;17.30;99.90;;;;;;5069792;28;20074;-74
2021/08/14 04:35:13;;;;;;;21.15;17.33;;;17.20;99.90;;;;;;5070369;28;20024;-75
2021/08/14 04:37:40;;;;;;;24.38;17.58;;;17.20;99.90;;;;;;5070840;28;20490;-74
2021/08/14 04:40:08;;;;;;;22.00;17.58;;;17.20;99.90;;;;;;5071185;28;20592;-74
2021/08/14 04:42:34;;;;;;;23.25;17.15;;;17.20;99.90;;;;;;5071017;28;20029;-75
2021/08/14 04:45:00;;;;;;;23.23;16.88;;;17.30;99.90;;;;;;5069406;28;20028;-74
2021/08/14 04:47:26;;;;;;;26.42;17.52;;;17.30;99.90;;;;;;5071067;28;20540;-75
2021/08/14 04:49:52;;;;;;;23.98;17.70;;;17.40;99.90;;;;;;5070175;28;20430;-74
2021/08/14 04:52:17;;;;;;;27.50;18.40;;;17.40;99.90;;;;;;5070000;28;20035;-74
2021/08/14 04:54:43;;;;;;;22.58;18.60;;;17.30;99.90;;;;;;5070194;28;20069;-74
2021/08/14 04:57:09;;;;;;;21.98;17.77;;;17.30;99.90;;;;;;5071064;28;20052;-74
2021/08/14 04:59:35;;;;;;;19.20;16.83;;;17.20;99.90;;;;;;5070825;28;20466;-75
2021/08/14 05:02:03;;;;;;;20.63;15.88;;;17.30;99.90;;;;;;5074725;28;20122;-74
2021/08/14 05:04:29;;;;;;;20.83;17.60;;;17.30;99.90;;;;;;5074151;28;20103;-74
2021/08/14 05:06:56;;;;;;;27.13;18.42;;;17.30;99.90;;;;;;5074599;28;20039;-74
2021/08/14 05:09:21;;;;;;;23.30;17.70;;;17.40;99.90;;;;;;5074799;28;20071;-74
2021/08/14 05:11:47;;;;;;;21.15;17.67;;;17.40;99.90;;;;;;5074971;28;20028;-76
2021/08/14 05:14:13;;;;;;;20.27;17.83;;;17.50;99.90;;;;;;5056393;28;20033;-74
2021/08/14 05:16:39;;;;;;;18.10;16.15;;;17.50;99.90;;;;;;5108398;23;20044;-74
2021/08/14 05:19:06;;;;;;;21.60;17.08;;;17.50;99.90;;;;;;5074895;28;20534;-73
2021/08/14 05:21:33;;;;;;;25.85;18.73;;;17.50;99.90;;;;;;5074926;28;20041;-72
2021/08/14 05:23:59;;;;;;;23.88;17.33;;;17.60;99.90;;;;;;5074468;28;20028;-73
2021/08/14 05:26:25;;;;;;;24.42;17.58;;;17.60;99.90;;;;;;5073738;28;20024;-74
2021/08/14 05:28:51;;;;;;;19.85;16.95;;;17.60;99.90;;;;;;5074193;28;20119;-73
2021/08/14 05:31:17;;;;;;;43.92;17.42;;;17.70;99.90;;;;;;5074131;28;20049;-74
2021/08/14 05:33:42;;;;;;;25.90;17.05;;;17.70;99.90;;;;;;5074218;28;20052;-74
2021/08/14 05:36:09;;;;;;;22.23;17.38;;;17.70;99.90;;;;;;5073363;28;20023;-74
2021/08/14 05:38:35;;;;;;;24.85;18.33;;;17.80;99.90;;;;;;5056489;28;20032;-73
2021/08/14 05:41:01;;;;;;;22.20;17.98;;;17.90;99.90;;;;;;5074505;28;20024;-73
2021/08/14 05:43:27;;;;;;;21.67;18.63;;;18.00;99.90;;;;;;5074579;28;20059;-72
2021/08/14 05:45:52;;;;;;;21.13;17.80;;;18.00;99.90;;;;;;5072343;28;20410;-73
2021/08/14 05:48:18;;;;;;;20.02;15.82;;;18.10;99.90;;;;;;5055514;28;20024;-72
2021/08/14 05:50:45;;;;;;;20.60;15.40;;;18.10;99.90;;;;;;5073986;28;20191;-72
2021/08/14 05:53:11;;;;;;;20.92;15.60;;;18.20;99.90;;;;;;5073943;28;20027;-72
2021/08/14 05:55:36;;;;;;;17.02;13.85;;;18.20;99.90;;;;;;5072160;28;20029;-73
2021/08/14 05:58:02;;;;;;;15.65;13.07;;;18.30;99.90;;;;;;5073661;28;20085;-73
2021/08/14 06:00:28;;;;;;;19.02;13.40;;;18.10;99.90;;;;;;5073588;28;20482;-73
2021/08/14 06:02:54;;;;;;;20.30;13.88;;;18.10;99.90;;;;;;5073210;28;20025;-72
2021/08/14 06:05:19;;;;;;;15.55;12.10;;;18.10;99.90;;;;;;5072501;28;20095;-72
2021/08/14 06:07:48;;;;;;;18.67;12.63;;;18.10;99.90;;;;;;5074154;28;20036;-73
2021/08/14 06:10:16;;;;;;;13.65;11.95;;;18.10;99.90;;;;;;5071396;28;20017;-74
2021/08/14 06:12:42;;;;;;;15.38;12.73;;;18.30;99.90;;;;;;5073627;28;20025;-71
2021/08/14 06:15:08;;;;;;;17.70;13.20;;;18.50;99.90;;;;;;5074162;28;20510;-71
2021/08/14 06:17:33;;;;;;;16.17;12.18;;;18.70;99.90;;;;;;5081308;28;20024;-73
2021/08/14 06:19:59;;;;;;;17.90;13.30;;;18.80;99.90;;;;;;5073420;28;20028;-70
2021/08/14 06:22:25;;;;;;;15.00;11.60;;;19.00;99.90;;;;;;5072652;28;20028;-70
2021/08/14 06:24:52;;;;;;;14.40;12.27;;;19.10;99.90;;;;;;5072881;28;20028;-70
2021/08/14 06:27:18;;;;;;;20.38;11.88;;;19.20;99.90;;;;;;5073625;28;20031;-71
2021/08/14 06:29:44;;;;;;;17.05;12.20;;;19.20;99.90;;;;;;5054994;28;20111;-70
2021/08/14 06:32:10;;;;;;;14.60;11.48;;;19.30;99.90;;;;;;5072656;28;20074;-70
2021/08/14 06:34:37;;;;;;;14.38;11.30;;;19.40;99.90;;;;;;5072308;28;20028;-70
2021/08/14 06:37:02;;;;;;;14.70;11.98;;;19.50;99.90;;;;;;5073286;28;20031;-70
2021/08/14 06:39:28;;;;;;;15.90;12.00;;;19.50;99.90;;;;;;5072574;28;20020;-71
2021/08/14 06:41:54;;;;;;;17.92;11.38;;;19.60;99.90;;;;;;5072310;28;20537;-71
2021/08/14 06:44:19;;;;;;;11.57;10.20;;;19.70;99.90;;;;;;5072258;28;20502;-72
2021/08/14 06:46:45;;;;;;;16.20;10.57;;;19.90;99.90;;;;;;5072304;28;20027;-70
2021/08/14 06:49:10;;;;;;;15.63;11.75;;;19.90;99.90;;;;;;5073910;28;20668;-71
2021/08/14 06:51:40;;;;;;;17.98;11.52;;;20.00;99.90;;;;;;5074532;28;20021;-73
2021/08/14 06:54:07;;;;;;;19.73;11.30;;;20.10;99.90;;;;;;5072685;28;20028;-71
2021/08/14 06:56:34;;;;;;;20.33;11.57;;;20.10;99.90;;;;;;5071181;28;20016;-70
2021/08/14 06:58:59;;;;;;;14.27;11.90;;;20.20;99.90;;;;;;5072284;28;20495;-71
2021/08/14 07:01:25;;;;;;;15.40;12.35;;;20.30;99.90;;;;;;5072280;28;20031;-70
2021/08/14 07:03:51;;;;;;;15.10;12.18;;;20.50;99.90;;;;;;5073060;28;20070;-71
2021/08/14 07:06:24;;;;;;;17.88;11.65;;;20.70;99.90;;;;;;5072303;28;20425;-71
2021/08/14 07:08:50;;;;;;;14.23;11.50;;;20.70;99.90;;;;;;5055076;28;20103;-71
2021/08/14 07:11:17;;;;;;;15.13;11.23;;;20.80;99.90;;;;;;5072082;28;20032;-71
2021/08/14 07:13:43;;;;;;;13.15;11.52;;;20.90;99.90;;;;;;5071909;28;20024;-71
2021/08/14 07:16:09;;;;;;;13.00;10.05;;;21.00;99.90;;;;;;5071412;28;20437;-71
2021/08/14 07:18:35;;;;;;;16.17;10.57;;;21.00;99.90;;;;;;5070022;28;20032;-71
2021/08/14 07:21:01;;;;;;;12.68;10.13;;;21.10;99.90;;;;;;5072035;28;20039;-73
2021/08/14 07:23:27;;;;;;;13.52;10.13;;;21.30;99.90;;;;;;5071266;28;20077;-74
2021/08/14 07:25:52;;;;;;;11.50;9.90;;;21.40;99.90;;;;;;5071138;28;20040;-73
2021/08/14 07:28:19;;;;;;;14.52;10.23;;;21.60;99.90;;;;;;5071744;28;20124;-73
2021/08/14 07:30:45;;;;;;;11.60;9.15;;;21.60;99.90;;;;;;5072338;28;20025;-73
2021/08/14 07:33:11;;;;;;;12.25;9.32;;;21.70;99.90;;;;;;5073840;28;20111;-73
2021/08/14 07:35:37;;;;;;;17.13;10.20;;;21.80;99.90;;;;;;5054118;28;20024;-73
2021/08/14 07:38:03;;;;;;;13.07;9.57;;;22.20;99.90;;;;;;5072364;28;20032;-73
2021/08/14 07:40:28;;;;;;;12.35;8.93;;;22.40;99.90;;;;;;5072209;28;20031;-73
2021/08/14 07:42:55;;;;;;;11.10;8.43;;;22.50;99.90;;;;;;5071899;28;20100;-72
2021/08/14 07:45:21;;;;;;;10.95;8.55;;;22.60;99.90;;;;;;5070972;28;20036;-72
2021/08/14 07:47:49;;;;;;;16.60;9.63;;;22.70;99.90;;;;;;5071806;28;20029;-73
2021/08/14 07:50:26;;;;;;;9.77;8.60;;;22.90;99.90;;;;;;5071937;28;20078;-73
2021/08/14 07:52:53;;;;;;;12.43;9.00;;;23.30;99.90;;;;;;5071564;28;20099;-73
2021/08/14 07:55:20;;;;;;;14.50;9.02;;;23.50;99.90;;;;;;5055239;28;20517;-73
2021/08/14 07:57:46;;;;;;;12.32;7.88;;;23.60;99.90;;;;;;5051534;28;20475;-72
2021/08/14 08:00:15;;;;;;;13.02;7.25;;;23.60;99.90;;;;;;5051457;28;20021;-72
2021/08/14 08:02:41;;;;;;;10.20;7.80;;;23.80;99.90;;;;;;5050940;28;20068;-72
2021/08/14 08:05:08;;;;;;;11.23;8.50;;;23.90;99.90;;;;;;5039947;28;20533;-73
2021/08/14 08:07:34;;;;;;;8.00;7.20;;;24.20;99.90;;;;;;5071250;28;20024;-72
2021/08/14 08:10:02;;;;;;;9.63;7.90;;;24.60;99.90;;;;;;5070643;28;20031;-73
2021/08/14 08:12:28;;;;;;;7.80;6.97;;;24.60;99.90;;;;;;5053411;28;20028;-71
2021/08/14 08:14:54;;;;;;;7.93;7.13;;;24.80;99.90;;;;;;5070575;28;20021;-73
2021/08/14 08:17:19;;;;;;;8.23;7.05;;;25.00;99.90;;;;;;5071961;28;20036;-72
2021/08/14 08:19:45;;;;;;;11.55;7.07;;;25.20;99.90;;;;;;5071115;28;20630;-73
2021/08/14 08:22:11;;;;;;;10.02;6.50;;;25.50;99.90;;;;;;5071081;28;20029;-72
2021/08/14 08:24:36;;;;;;;14.50;6.40;;;25.90;99.90;;;;;;5070059;28;20060;-72
2021/08/14 08:27:02;;;;;;;8.98;6.63;;;26.30;99.90;;;;;;5070954;28;20530;-71
2021/08/14 08:29:28;;;;;;;10.07;6.63;;;27.00;99.90;;;;;;5070588;28;20099;-71
2021/08/14 08:31:54;;;;;;;6.72;5.97;;;27.70;99.90;;;;;;5071369;28;20112;-72
2021/08/14 08:34:23;;;;;;;7.00;6.03;;;28.50;99.90;;;;;;5070462;28;20035;-72
2021/08/14 08:36:53;;;;;;;5.95;5.32;;;29.10;99.90;;;;;;5074583;28;20024;-72
2021/08/14 08:39:19;;;;;;;7.43;5.03;;;29.30;99.90;;;;;;5074955;28;20025;-72
2021/08/14 08:41:44;;;;;;;8.18;5.70;;;28.70;99.90;;;;;;5075289;28;20090;-72
2021/08/14 08:44:10;;;;;;;5.38;4.97;;;29.00;99.90;;;;;;5074222;28;20031;-72
2021/08/14 08:46:36;;;;;;;5.93;4.65;;;29.40;99.90;;;;;;5074612;28;20024;-72
2021/08/14 08:49:03;;;;;;;6.13;4.50;;;29.30;99.90;;;;;;5074882;28;20036;-72
2021/08/14 08:51:32;;;;;;;9.55;4.80;;;29.80;99.90;;;;;;5074407;28;20032;-72
2021/08/14 08:53:58;;;;;;;6.50;4.90;;;30.80;99.90;;;;;;5074704;28;20534;-72
2021/08/14 08:56:24;;;;;;;5.10;4.70;;;31.50;99.90;;;;;;5074455;28;20047;-71
2021/08/14 08:58:50;;;;;;;5.10;4.60;;;31.20;98.30;;;;;;5074810;28;20498;-71
2021/08/14 09:01:15;;;;;;;5.63;4.68;;;31.30;98.60;;;;;;5074570;28;20024;-73
2021/08/14 09:03:41;;;;;;;5.18;4.45;;;31.90;98.20;;;;;;5074747;28;20036;-73
2021/08/14 09:06:07;;;;;;;6.32;4.40;;;32.70;96.30;;;;;;5073739;28;20028;-69
2021/08/14 09:08:32;;;;;;;5.78;3.72;;;32.40;93.30;;;;;;5074337;28;20405;-72
2021/08/14 09:11:15;;;;;;;7.70;4.28;;;31.40;94.60;;;;;;5074311;28;20118;-73
2021/08/14 09:14:05;;;;;;;4.88;3.92;;;32.50;95.90;;;;;;5074729;28;20024;-72
2021/08/14 09:16:30;;;;;;;8.60;4.38;;;33.00;95.60;;;;;;5073875;28;20037;-72
2021/08/14 09:18:57;;;;;;;5.22;4.05;;;33.50;93.90;;;;;;5073909;28;20032;-70
2021/08/14 09:21:33;;;;;;;6.20;3.95;;;34.20;93.50;;;;;;5074129;28;20036;-69
2021/08/14 09:24:06;;;;;;;4.28;3.95;;;34.40;92.10;;;;;;5074182;28;20535;-69
2021/08/14 09:26:38;;;;;;;7.32;4.43;;;34.20;91.70;;;;;;5073667;28;20386;-70
2021/08/14 09:29:05;;;;;;;4.97;4.50;;;33.90;91.70;;;;;;5073937;28;20039;-70
2021/08/14 09:31:51;;;;;;;10.23;4.35;;;34.90;91.00;;;;;;5073852;28;20689;-70
2021/08/14 09:34:21;;;;;;;4.50;4.10;;;35.40;89.60;;;;;;5073279;28;20012;-69
2021/08/14 09:37:05;;;;;;;5.40;4.30;;;35.80;88.20;;;;;;5073946;28;20016;-69
2021/08/14 09:39:33;;;;;;;4.57;4.28;;;34.90;87.30;;;;;;5073362;28;20029;-70
2021/08/14 09:42:04;;;;;;;6.70;4.35;;;33.80;90.00;;;;;;5073643;28;20390;-72
2021/08/14 09:44:29;;;;;;;;;;;33.60;88.70;;;;;;5073000;28;20028;-73
2021/08/14 09:46:55;;;;;;;7.10;4.90;;;33.20;90.40;;;;;;5073462;28;19905;-72
2021/08/14 09:49:20;;;;;;;4.93;4.00;;;32.70;91.50;;;;;;5073849;28;20025;-72
2021/08/14 09:51:46;;;;;;;8.07;4.60;;;33.20;91.60;;;;;;5073536;28;20108;-73
2021/08/14 09:54:12;;;;;;;4.50;4.07;;;34.20;90.20;;;;;;5074033;28;20028;-73
2021/08/14 09:56:37;;;;;;;8.50;4.53;;;34.60;87.90;;;;;;5073143;28;20025;-73
2021/08/14 09:59:05;;;;;;;7.20;4.88;;;33.20;88.40;;;;;;5073288;28;20086;-72
2021/08/14 10:01:32;;;;;;;9.45;4.25;;;34.20;90.00;;;;;;5073276;28;20041;-72
2021/08/14 10:03:58;;;;;;;5.05;4.15;;;35.10;89.00;;;;;;5073506;28;20020;-72
2021/08/14 10:06:26;;;;;;;5.20;3.88;;;35.00;86.20;;;;;;5072287;28;20056;-72
2021/08/14 10:08:52;;;;;;;5.35;4.20;;;35.50;84.20;;;;;;5072422;28;20124;-72
2021/08/14 10:11:18;;;;;;;4.50;4.03;;;35.30;87.00;;;;;;5072809;28;20020;-72
2021/08/14 10:13:45;;;;;;;7.63;4.50;;;36.20;83.30;;;;;;5054970;28;20024;-72
2021/08/14 10:16:12;;;;;;;7.47;4.70;;;36.10;81.10;;;;;;5072558;28;20090;-72
2021/08/14 10:18:39;;;;;;;6.22;4.63;;;36.90;81.20;;;;;;5073246;28;20490;-72
2021/08/14 10:21:05;;;;;;;4.20;3.75;;;37.30;79.30;;;;;;5072791;28;20458;-72
2021/08/14 10:23:31;;;;;;;4.28;3.92;;;36.90;78.70;;;;;;5072926;28;20075;-72
2021/08/14 10:26:10;;;;;;;7.38;4.93;;;36.10;79.10;;;;;;5071870;28;20025;-72
2021/08/14 10:28:55;;;;;;;5.70;4.32;;;35.70;79.60;;;;;;5072838;28;20035;-72
2021/08/14 10:31:29;;;;;;;8.20;4.70;;;35.90;82.10;;;;;;5072777;28;20017;-72
2021/08/14 10:34:15;;;;;;;7.80;4.55;;;36.40;80.40;;;;;;5072641;28;20433;-71
2021/08/14 10:36:42;;;;;;;4.97;4.38;;;36.10;79.50;;;;;;5058369;28;20047;-70
2021/08/14 10:39:51;;;;;;;7.25;4.60;;;35.70;78.90;;;;;;5072923;28;20016;-72
2021/08/14 10:42:16;;;;;;;9.80;4.75;;;35.00;81.70;;;;;;5014778;28;20391;-72
2021/08/14 10:44:50;;;;;;;6.72;4.95;;;34.40;84.40;;;;;;5060312;28;20031;-71
2021/08/14 10:47:50;;;;;;;5.90;5.07;;;33.60;83.40;;;;;;5072557;28;20459;-70
2021/08/14 10:50:33;;;;;;;5.93;4.90;;;33.40;87.90;;;;;;5029210;28;20054;-71
2021/08/14 10:53:11;;;;;;;7.25;4.90;;;33.70;87.10;;;;;;5071236;28;20025;-70
2021/08/14 10:55:48;;;;;;;11.60;5.07;;;33.80;85.40;;;;;;5070921;28;20029;-72
2021/08/14 10:58:23;;;;;;;4.93;4.50;;;33.80;83.10;;;;;;5065183;28;20031;-73
2021/08/14 11:01:12;;;;;;;6.63;4.57;;;33.30;83.50;;;;;;5058585;28;20025;-71
2021/08/14 11:03:38;;;;;;;8.20;4.90;;;32.20;85.00;;;;;;5055832;28;20040;-69
2021/08/14 11:06:27;;;;;;;5.30;4.68;;;32.70;82.10;;;;;;5070535;28;20028;-69
2021/08/14 11:09:18;;;;;;;7.70;4.60;;;32.90;84.30;;;;;;5067101;28;20496;-69
2021/08/14 11:11:57;;;;;;;4.82;4.32;;;34.00;84.00;;;;;;5039152;28;20450;-71
2021/08/14 11:14:39;;;;;;;6.65;4.30;;;35.30;83.70;;;;;;5057328;28;20024;-70
2021/08/14 11:17:04;;;;;;;6.05;5.03;;;35.70;80.10;;;;;;5129324;23;20045;-73
2021/08/14 11:20:03;;;;;;;7.05;5.28;;;35.60;78.20;;;;;;5051743;28;20060;-73
2021/08/14 11:22:42;;;;;;;5.20;4.63;;;37.00;77.20;;;;;;5029551;28;20124;-74
2021/08/14 11:25:36;;;;;;;6.13;4.60;;;36.60;76.60;;;;;;5055226;28;20082;-80
2021/08/14 11:28:19;;;;;;;7.60;5.30;;;35.40;78.60;;;;;;5020055;28;20022;-77
2021/08/14 11:30:59;;;;;;;7.78;5.53;;;35.10;78.00;;;;;;5038805;28;20037;-80
2021/08/14 11:33:26;;;;;;;9.75;4.85;;;35.10;79.50;;;;;;5037899;28;20029;-81
2021/08/14 11:36:03;;;;;;;6.72;4.97;;;35.40;83.00;;;;;;5038567;28;20096;-82
2021/08/14 11:38:42;;;;;;;6.35;4.78;;;36.30;81.50;;;;;;5013493;28;20029;-78
2021/08/14 11:41:21;;;;;;;9.43;4.97;;;35.80;81.70;;;;;;5032293;28;20805;-78
2021/08/14 11:43:47;;;;;;;7.47;5.10;;;36.00;79.00;;;;;;5029086;28;20033;-76
2021/08/14 11:46:13;;;;;;;5.30;4.80;;;36.40;78.90;;;;;;5032471;28;20029;-78
2021/08/14 11:48:46;;;;;;;7.03;4.82;;;37.20;77.30;;;;;;5014660;28;20502;-78
2021/08/14 11:51:16;;;;;;;5.28;4.85;;;37.40;76.90;;;;;;5033625;28;20032;-78
2021/08/14 11:53:42;;;;;;;8.50;5.07;;;37.20;76.70;;;;;;5030142;28;20068;-77
2021/08/14 11:56:10;;;;;;;9.35;5.47;;;37.30;74.50;;;;;;5030108;28;20021;-76
2021/08/14 11:58:37;;;;;;;9.65;5.50;;;37.20;75.90;;;;;;5030681;28;20028;-75
2021/08/14 12:01:04;;;;;;;9.35;5.00;;;36.50;73.00;;;;;;5030042;28;20100;-76
2021/08/14 12:03:30;;;;;;;11.63;6.10;;;35.70;75.40;;;;;;5029212;28;20056;-76
2021/08/14 12:06:16;;;;;;;5.35;4.75;;;34.70;81.10;;;;;;5029885;28;20065;-76
2021/08/14 12:08:46;;;;;;;7.80;5.22;;;35.30;80.80;;;;;;5009457;28;20040;-77
2021/08/14 12:11:23;;;;;;;8.13;5.07;;;35.80;78.50;;;;;;5030276;28;20025;-76
2021/08/14 12:14:12;;;;;;;10.32;5.35;;;35.00;77.40;;;;;;5028890;28;20018;-76
2021/08/14 12:16:43;;;;;;;11.82;5.40;;;34.90;76.90;;;;;;5034834;28;20112;-77
2021/08/14 12:19:27;;;;;;;8.48;5.45;;;34.80;79.00;;;;;;5033002;28;20033;-77
2021/08/14 12:22:07;;;;;;;6.15;5.00;;;35.60;79.90;;;;;;5030105;28;20103;-77
2021/08/14 12:24:32;;;;;;;6.47;5.18;;;35.10;77.10;;;;;;5029260;28;21436;-78
2021/08/14 12:26:58;;;;;;;9.52;5.65;;;35.60;78.00;;;;;;5012505;28;20033;-76
2021/08/14 12:29:24;;;;;;;8.43;5.72;;;35.20;77.70;;;;;;5012763;28;20562;-75
2021/08/14 12:31:52;;;;;;;6.30;5.30;;;35.10;79.50;;;;;;5031363;28;20100;-73
2021/08/14 12:34:21;;;;;;;6.63;5.13;;;35.40;80.30;;;;;;5012438;28;20053;-73
2021/08/14 12:36:58;;;;;;;9.88;5.03;;;35.10;78.70;;;;;;5034100;28;20357;-78